createdAt,value
2018-11-21T00:00:23.696Z,4.10
2018-11-21T00:02:53.364Z,4.00
2018-11-21T00:05:23.016Z,3.90
2018-11-21T00:07:52.702Z,3.80
2018-11-21T00:10:22.331Z,3.70
2018-11-21T00:12:53.746Z,3.70
2018-11-21T00:15:23.373Z,3.70
2018-11-21T00:17:52.984Z,3.70
2018-11-21T00:20:22.604Z,3.80
2018-11-21T00:22:52.254Z,3.70
2018-11-21T00:25:21.872Z,3.60
2018-11-21T00:27:51.480Z,3.60
2018-11-21T00:30:21.917Z,3.80
2018-11-21T00:32:51.515Z,3.80
2018-11-21T00:35:21.135Z,3.60
2018-11-21T00:37:52.799Z,3.60
2018-11-21T00:40:22.468Z,3.70
2018-11-21T00:42:52.035Z,3.60
2018-11-21T00:45:21.671Z,3.70
2018-11-21T00:47:51.277Z,3.80
2018-11-21T00:50:20.925Z,3.80
2018-11-21T00:52:50.531Z,3.80
2018-11-21T00:55:21.391Z,3.80
2018-11-21T00:57:50.993Z,3.70
2018-11-21T01:00:20.621Z,3.70
2018-11-21T01:02:50.526Z,3.80
2018-11-21T01:05:20.983Z,3.80
2018-11-21T01:07:50.580Z,3.80
2018-11-21T01:10:20.197Z,3.70
2018-11-21T01:12:49.802Z,3.70
2018-11-21T01:15:19.419Z,3.70
2018-11-21T01:17:49.091Z,3.70
2018-11-21T01:20:18.731Z,3.50
2018-11-21T01:22:48.383Z,3.50
2018-11-21T01:25:18.038Z,3.50
2018-11-21T01:27:48.436Z,3.50
2018-11-21T01:30:18.054Z,3.60
2018-11-21T01:32:47.660Z,3.40
2018-11-21T01:35:17.304Z,3.40
2018-11-21T01:37:46.926Z,3.40
2018-11-21T01:40:16.589Z,3.50
2018-11-21T01:42:46.284Z,3.40
2018-11-21T01:45:18.228Z,3.30
2018-11-21T01:47:47.890Z,3.20
2018-11-21T01:50:17.477Z,3.30
2018-11-21T01:52:47.110Z,3.20
2018-11-21T01:55:16.712Z,3.20
2018-11-21T01:57:46.364Z,3.20
2018-11-21T02:00:15.986Z,3.20
2018-11-21T02:02:45.576Z,3.30
2018-11-21T02:07:16.919Z,3.40
2018-11-21T02:09:58.108Z,3.40
2018-11-21T02:12:38.863Z,3.20
2018-11-21T02:15:19.960Z,3.00
2018-11-21T02:17:48.342Z,2.90
2018-11-21T02:20:36.083Z,2.90
2018-11-21T02:23:24.128Z,3.00
2018-11-21T02:26:12.243Z,3.00
2018-11-21T02:29:01.184Z,3.10
2018-11-21T02:31:48.966Z,3.10
2018-11-21T02:34:36.716Z,3.10
2018-11-21T02:37:24.541Z,3.00
2018-11-21T02:40:12.278Z,3.00
2018-11-21T02:43:00.317Z,3.00
2018-11-21T02:45:48.072Z,3.00
2018-11-21T02:48:35.833Z,2.90
2018-11-21T02:51:23.585Z,2.90
2018-11-21T02:54:12.236Z,2.80
2018-11-21T02:57:20.114Z,2.70
2018-11-21T03:00:08.833Z,2.60
2018-11-21T03:02:56.611Z,2.60
2018-11-21T03:05:44.430Z,2.50
2018-11-21T03:08:32.444Z,2.50
2018-11-21T03:11:20.224Z,2.60
2018-11-21T03:14:07.971Z,2.70
2018-11-21T03:16:56.034Z,2.70
2018-11-21T03:19:43.796Z,2.60
2018-11-21T03:22:31.619Z,2.60
2018-11-21T03:25:19.380Z,2.50
2018-11-21T03:28:08.006Z,2.40
2018-11-21T03:30:56.757Z,2.40
2018-11-21T03:33:44.530Z,2.30
2018-11-21T03:36:32.357Z,2.30
2018-11-21T03:39:21.596Z,2.40
2018-11-21T03:42:09.374Z,2.60
2018-11-21T03:44:57.212Z,2.80
2018-11-21T03:47:44.992Z,2.80
2018-11-21T03:50:32.740Z,2.80
2018-11-21T03:53:20.519Z,2.80
2018-11-21T03:56:09.121Z,2.70
2018-11-21T03:58:56.867Z,2.50
2018-11-21T04:01:45.307Z,2.50
2018-11-21T04:04:33.060Z,2.40
2018-11-21T04:07:13.536Z,2.40
2018-11-21T04:09:54.673Z,2.40
2018-11-21T04:12:34.921Z,2.40
2018-11-21T04:15:14.113Z,2.30
2018-11-21T04:18:02.782Z,2.30
2018-11-21T04:20:50.535Z,2.30
2018-11-21T04:23:38.329Z,2.30
2018-11-21T04:26:26.080Z,2.40
2018-11-21T04:29:13.849Z,2.40
2018-11-21T04:32:01.971Z,2.50
2018-11-21T04:34:49.764Z,2.50
2018-11-21T04:37:37.505Z,2.50
2018-11-21T04:40:25.276Z,2.50
2018-11-21T04:43:13.403Z,2.50
2018-11-21T04:46:01.189Z,2.50
2018-11-21T04:48:49.018Z,2.50
2018-11-21T04:51:36.795Z,2.50
2018-11-21T04:54:24.822Z,2.50
2018-11-21T04:57:12.605Z,2.40
2018-11-21T05:00:00.433Z,2.40
2018-11-21T05:02:48.491Z,2.30
2018-11-21T05:05:36.222Z,2.40
2018-11-21T05:08:24.001Z,2.40
2018-11-21T05:11:11.832Z,2.40
2018-11-21T05:13:59.598Z,2.40
2018-11-21T05:16:47.349Z,2.50
2018-11-21T05:19:35.949Z,2.40
2018-11-21T05:22:23.687Z,2.50
2018-11-21T05:25:11.785Z,2.40
2018-11-21T05:27:59.544Z,2.50
2018-11-21T05:30:47.754Z,2.50
2018-11-21T05:36:23.894Z,2.50
2018-11-21T05:39:12.571Z,2.50
2018-11-21T05:42:00.428Z,2.50
2018-11-21T05:44:48.187Z,2.40
2018-11-21T05:47:35.994Z,2.30
2018-11-21T05:50:23.751Z,2.20
2018-11-21T05:53:12.339Z,2.20
2018-11-21T05:56:00.495Z,2.20
2018-11-21T05:58:48.329Z,2.10
2018-11-21T06:01:36.132Z,2.10
2018-11-21T06:04:23.922Z,2.10
2018-11-21T06:07:11.689Z,2.10
2018-11-21T06:09:59.469Z,2.10
2018-11-21T06:12:47.219Z,2.00
2018-11-21T06:15:34.990Z,2.20
2018-11-21T06:18:22.745Z,2.30
2018-11-21T06:21:10.507Z,2.40
2018-11-21T06:23:58.244Z,2.40
2018-11-21T06:26:50.937Z,2.40
2018-11-21T06:29:39.042Z,2.30
2018-11-21T06:32:26.820Z,2.30
2018-11-21T06:35:14.584Z,2.40
2018-11-21T06:38:02.359Z,2.40
2018-11-21T06:40:50.106Z,2.50
2018-11-21T06:43:37.918Z,2.50
2018-11-21T06:46:25.677Z,2.50
2018-11-21T06:49:13.800Z,2.60
2018-11-21T06:52:01.542Z,2.60
2018-11-21T06:54:49.319Z,2.80
2018-11-21T06:57:37.070Z,2.90
2018-11-21T07:00:24.874Z,2.80
2018-11-21T07:03:13.394Z,2.80
2018-11-21T07:06:01.215Z,2.80
2018-11-21T07:08:48.965Z,2.80
2018-11-21T07:11:29.706Z,2.80
2018-11-21T07:14:10.700Z,2.80
2018-11-21T07:16:51.298Z,2.80
2018-11-21T07:19:31.945Z,2.80
2018-11-21T07:22:12.369Z,2.80
2018-11-21T07:24:53.555Z,2.80
2018-11-21T07:27:34.503Z,2.80
2018-11-21T07:30:16.271Z,2.70
2018-11-21T07:32:56.935Z,2.70
2018-11-21T07:35:37.324Z,2.70
2018-11-21T07:38:18.354Z,2.80
2018-11-21T07:40:47.581Z,2.80
2018-11-21T07:43:35.884Z,2.80
2018-11-21T07:46:24.444Z,2.90
2018-11-21T07:49:12.204Z,3.00
2018-11-21T07:51:40.553Z,3.00
2018-11-21T07:54:28.321Z,2.80
2018-11-21T07:57:54.579Z,2.70
2018-11-21T08:00:45.284Z,2.70
2018-11-21T08:03:35.044Z,2.90
2018-11-21T08:06:22.547Z,2.90
2018-11-21T08:09:29.461Z,2.90
2018-11-21T08:12:36.353Z,3.00
2018-11-21T08:15:43.227Z,2.90
2018-11-21T08:18:50.083Z,2.80
2018-11-21T08:21:56.980Z,3.00
2018-11-21T08:25:03.880Z,3.00
2018-11-21T08:28:10.760Z,2.90
2018-11-21T08:30:58.508Z,3.10
2018-11-21T08:33:46.292Z,3.10
2018-11-21T08:36:35.082Z,3.20
2018-11-21T08:39:22.817Z,3.20
2018-11-21T08:42:10.871Z,3.30
2018-11-21T08:44:58.904Z,3.20
2018-11-21T08:47:47.745Z,3.30
2018-11-21T08:50:35.584Z,3.40
2018-11-21T08:53:23.357Z,3.50
2018-11-21T08:56:11.110Z,3.50
2018-11-21T08:58:59.773Z,3.60
2018-11-21T09:01:48.404Z,3.70
2018-11-21T09:04:36.973Z,3.60
2018-11-21T09:07:25.556Z,3.70
2018-11-21T09:10:13.768Z,3.70
2018-11-21T09:13:02.310Z,3.60
2018-11-21T09:15:50.085Z,3.70
2018-11-21T09:18:18.511Z,3.60
2018-11-21T09:21:06.281Z,3.50
2018-11-21T09:23:54.020Z,3.60
2018-11-21T09:26:41.800Z,3.60
2018-11-21T09:29:29.541Z,3.70
2018-11-21T09:32:17.308Z,3.50
2018-11-21T09:35:06.285Z,3.60
2018-11-21T09:37:54.350Z,3.70
2018-11-21T09:40:42.364Z,3.70
2018-11-21T09:43:30.120Z,3.70
2018-11-21T09:45:58.755Z,3.60
2018-11-21T09:48:46.509Z,3.70
2018-11-21T09:51:34.324Z,3.80
2018-11-21T09:54:22.076Z,3.80
2018-11-21T09:57:09.833Z,3.80
2018-11-21T10:03:05.275Z,4.00
2018-11-21T10:05:57.011Z,4.00
2018-11-21T10:09:03.905Z,4.00
2018-11-21T10:11:51.626Z,4.00
2018-11-21T10:14:39.671Z,4.10
2018-11-21T10:17:27.416Z,4.10
2018-11-21T10:20:15.186Z,4.20
2018-11-21T10:23:02.945Z,4.20
2018-11-21T10:25:50.709Z,4.20
2018-11-21T10:28:38.857Z,4.20
2018-11-21T10:31:26.588Z,4.20
2018-11-21T10:34:14.346Z,4.00
2018-11-21T10:37:02.134Z,3.90
2018-11-21T10:39:50.145Z,4.10
2018-11-21T10:42:37.922Z,4.20
2018-11-21T10:45:25.662Z,4.30
2018-11-21T10:48:13.423Z,4.30
2018-11-21T10:51:01.361Z,4.30
2018-11-21T10:53:49.149Z,4.30
2018-11-21T10:56:36.900Z,4.40
2018-11-21T10:59:24.677Z,4.60
2018-11-21T11:02:31.541Z,4.50
2018-11-21T11:05:38.422Z,4.50
2018-11-21T11:08:25.916Z,4.60
2018-11-21T11:11:33.569Z,4.40
2018-11-21T11:14:40.459Z,4.40
2018-11-21T11:17:47.330Z,4.60
2018-11-21T11:20:54.226Z,4.70
2018-11-21T11:24:01.126Z,4.60
2018-11-21T11:27:08.775Z,4.70
2018-11-21T11:30:15.663Z,4.90
2018-11-21T11:33:22.568Z,4.90
2018-11-21T11:36:29.516Z,4.90
2018-11-21T11:39:36.473Z,5.00
2018-11-21T11:42:43.363Z,4.90
2018-11-21T11:45:50.241Z,4.90
2018-11-21T11:48:37.780Z,4.80
2018-11-21T11:51:44.689Z,4.90
2018-11-21T11:54:51.581Z,4.90
2018-11-21T11:57:58.444Z,5.00
2018-11-21T12:01:05.344Z,5.00
2018-11-21T12:04:12.212Z,5.00
2018-11-21T12:07:19.115Z,5.00
2018-11-21T12:10:07.819Z,5.00
2018-11-21T12:13:15.471Z,5.10
2018-11-21T12:16:22.391Z,5.10
2018-11-21T12:19:29.286Z,5.20
2018-11-21T12:22:36.207Z,5.10
2018-11-21T12:25:23.816Z,5.10
2018-11-21T12:28:30.729Z,5.10
2018-11-21T12:31:37.617Z,5.10
2018-11-21T12:34:44.547Z,5.00
2018-11-21T12:37:51.470Z,5.00
2018-11-21T12:40:38.969Z,4.90
2018-11-21T12:43:45.829Z,4.90
2018-11-21T12:46:33.326Z,4.90
2018-11-21T12:49:20.804Z,5.10
2018-11-21T12:52:27.691Z,5.20
2018-11-21T12:55:15.161Z,5.20
2018-11-21T12:58:22.244Z,5.30
2018-11-21T13:01:29.144Z,5.30
2018-11-21T13:04:36.006Z,5.30
2018-11-21T13:07:34.157Z,5.30
2018-11-21T13:10:41.040Z,5.20
2018-11-21T13:13:47.931Z,5.20
2018-11-21T13:16:47.646Z,5.20
2018-11-21T13:19:53.929Z,5.20
2018-11-21T13:23:00.816Z,5.20
2018-11-21T13:26:07.737Z,5.20
2018-11-21T13:29:17.309Z,5.00
2018-11-21T13:32:21.850Z,5.10
2018-11-21T13:35:28.745Z,5.20
2018-11-21T13:38:36.014Z,5.10
2018-11-21T13:41:42.911Z,5.20
2018-11-21T13:44:49.779Z,5.20
2018-11-21T13:47:56.677Z,5.10
2018-11-21T13:50:44.157Z,5.10
2018-11-21T13:53:47.662Z,5.10
2018-11-21T13:56:35.494Z,5.10
2018-11-21T13:59:24.026Z,5.00
2018-11-21T14:05:06.718Z,4.90
2018-11-21T14:07:54.521Z,5.00
2018-11-21T14:10:42.201Z,4.90
2018-11-21T14:13:29.960Z,5.00
2018-11-21T14:16:17.889Z,5.00
2018-11-21T14:19:05.717Z,5.00
2018-11-21T14:21:55.971Z,5.00
2018-11-21T14:24:41.581Z,5.00
2018-11-21T14:27:29.341Z,5.00
2018-11-21T14:30:17.504Z,5.00
2018-11-21T14:33:05.623Z,5.00
2018-11-21T14:35:56.048Z,4.80
2018-11-21T14:38:41.146Z,4.70
2018-11-21T14:41:29.233Z,4.60
2018-11-21T14:44:17.307Z,4.70
2018-11-21T14:47:06.558Z,4.80
2018-11-21T14:49:55.925Z,4.80
2018-11-21T14:52:43.686Z,4.90
2018-11-21T14:55:31.413Z,5.00
2018-11-21T15:12:27.084Z,4.80
2018-11-21T15:15:16.573Z,4.90
2018-11-21T15:18:04.307Z,4.90
2018-11-21T15:20:52.026Z,4.90
2018-11-21T15:23:39.840Z,4.90
2018-11-21T15:26:27.817Z,4.60
2018-11-21T15:28:56.244Z,4.70
2018-11-21T15:31:43.941Z,4.80
2018-11-21T15:34:31.664Z,4.80
2018-11-21T15:37:19.418Z,4.90
2018-11-21T15:40:08.879Z,4.90
2018-11-21T15:42:56.604Z,4.90
2018-11-21T15:45:25.719Z,5.00
2018-11-21T15:48:13.454Z,5.00
2018-11-21T15:51:01.153Z,4.90
2018-11-21T15:53:48.886Z,5.00
2018-11-21T15:56:17.193Z,5.00
2018-11-21T15:59:05.009Z,4.70
2018-11-21T16:01:52.710Z,4.80
2018-11-21T16:04:40.435Z,4.70
2018-11-21T16:07:28.292Z,4.90
2018-11-21T16:10:18.926Z,4.70
2018-11-21T16:13:05.366Z,4.70
2018-11-21T16:15:45.375Z,4.70
2018-11-21T16:18:14.135Z,4.80
2018-11-21T16:21:01.859Z,4.80
2018-11-21T16:23:49.636Z,4.70
2018-11-21T16:26:37.739Z,4.70
2018-11-21T16:29:25.520Z,4.70
2018-11-21T16:32:13.389Z,4.50
2018-11-21T16:35:01.132Z,4.70
2018-11-21T16:37:48.840Z,4.70
2018-11-21T16:40:37.121Z,4.80
2018-11-21T16:43:24.879Z,4.90
2018-11-21T16:46:12.616Z,4.70
2018-11-21T16:49:00.771Z,4.70
2018-11-21T16:51:48.527Z,4.60
2018-11-21T16:54:36.513Z,4.50
2018-11-21T16:57:24.502Z,4.80
2018-11-21T17:00:14.267Z,5.00
2018-11-21T17:03:02.178Z,5.10
2018-11-21T17:05:30.801Z,5.20
2018-11-21T17:08:18.578Z,5.30
2018-11-21T17:10:46.925Z,5.00
2018-11-21T17:13:15.236Z,5.10
2018-11-21T17:16:02.975Z,5.00
2018-11-21T17:18:31.316Z,5.10
2018-11-21T17:21:21.277Z,5.20
2018-11-21T17:24:09.035Z,5.20
2018-11-21T17:26:57.274Z,5.10
2018-11-21T17:29:53.593Z,5.20
2018-11-21T17:32:33.017Z,5.20
2018-11-21T17:35:21.956Z,5.10
2018-11-21T17:38:09.677Z,5.00
2018-11-21T17:40:57.709Z,5.10
2018-11-21T17:43:45.467Z,5.20
2018-11-21T17:46:37.275Z,5.20
2018-11-21T17:52:14.340Z,5.40
2018-11-21T17:54:43.870Z,5.30
2018-11-21T17:57:12.267Z,5.40
2018-11-21T18:00:00.159Z,5.50
2018-11-21T18:02:48.102Z,5.50
2018-11-21T18:05:37.624Z,5.50
2018-11-21T18:08:18.773Z,5.50
2018-11-21T18:10:59.823Z,5.40
2018-11-21T18:13:40.601Z,5.40
2018-11-21T18:16:21.531Z,5.40
2018-11-21T18:21:44.630Z,5.50
2018-11-21T18:27:08.567Z,5.50
2018-11-21T18:29:49.191Z,5.50
2018-11-21T18:32:31.654Z,5.50
2018-11-21T18:35:13.353Z,5.50
2018-11-21T18:37:53.937Z,5.60
2018-11-21T18:40:34.960Z,5.60
2018-11-21T18:43:15.678Z,5.60
2018-11-21T18:45:56.719Z,5.50
2018-11-21T18:48:25.344Z,5.50
2018-11-21T18:51:13.127Z,5.60
2018-11-21T18:54:00.871Z,5.60
2018-11-21T18:57:08.209Z,5.50
2018-11-21T18:59:58.273Z,5.50
2018-11-21T19:02:46.110Z,5.50
2018-11-21T19:05:33.812Z,5.60
2018-11-21T19:08:21.892Z,5.50
2018-11-21T19:11:09.590Z,5.40
2018-11-21T19:13:57.337Z,5.30
2018-11-21T19:16:45.087Z,5.40
2018-11-21T19:19:33.097Z,5.40
2018-11-21T19:22:20.890Z,5.40
2018-11-21T19:25:09.073Z,5.50
2018-11-21T19:27:56.906Z,5.60
2018-11-21T19:30:44.692Z,5.50
2018-11-21T19:33:32.516Z,5.60
2018-11-21T19:36:20.216Z,5.60
2018-11-21T19:39:10.402Z,5.50
2018-11-21T19:41:58.923Z,5.40
2018-11-21T19:44:47.143Z,5.50
2018-11-21T19:47:34.952Z,5.60
2018-11-21T19:50:22.694Z,5.50
2018-11-21T19:53:10.448Z,5.60
2018-11-21T19:58:48.967Z,5.50
2018-11-21T20:01:36.731Z,5.50
2018-11-21T20:04:24.459Z,5.50
2018-11-21T20:07:12.211Z,5.50
2018-11-21T20:10:01.879Z,5.50
2018-11-21T20:12:48.511Z,5.40
2018-11-21T20:15:36.330Z,5.50
2018-11-21T20:18:25.624Z,5.50
2018-11-21T20:21:13.041Z,5.50
2018-11-21T20:24:00.850Z,5.40
2018-11-21T20:26:53.187Z,5.50
2018-11-21T20:29:37.281Z,5.70
2018-11-21T20:32:28.060Z,5.60
2018-11-21T20:35:16.546Z,5.50
2018-11-21T20:37:45.299Z,5.50
2018-11-21T20:40:34.464Z,5.50
2018-11-21T20:43:02.907Z,5.50
2018-11-21T20:45:50.838Z,5.50
2018-11-21T20:48:41.161Z,5.40
2018-11-21T20:51:30.878Z,5.40
2018-11-21T20:54:16.834Z,5.30
2018-11-21T20:57:04.855Z,5.40
2018-11-21T20:59:46.223Z,5.40
2018-11-21T21:02:26.945Z,5.40
2018-11-21T21:05:08.214Z,5.40
2018-11-21T21:07:51.616Z,5.40
2018-11-21T21:10:33.674Z,5.50
2018-11-21T21:13:16.899Z,5.50
2018-11-21T21:15:58.025Z,5.50
2018-11-21T21:18:38.585Z,5.50
2018-11-21T21:24:01.600Z,5.50
2018-11-21T21:26:42.248Z,5.50
2018-11-21T21:29:10.881Z,5.50
2018-11-21T21:31:39.208Z,5.50
2018-11-21T21:34:27.032Z,5.40
2018-11-21T21:37:14.747Z,5.40
2018-11-21T21:40:02.841Z,5.40
2018-11-21T21:42:50.594Z,5.50
2018-11-21T21:45:38.349Z,5.60
2018-11-21T21:48:26.743Z,5.50
2018-11-21T21:51:15.342Z,5.50
2018-11-21T21:54:03.114Z,5.50
2018-11-21T21:56:51.005Z,5.60
2018-11-21T21:59:38.792Z,5.60
2018-11-21T22:02:26.933Z,5.50
2018-11-21T22:05:15.168Z,5.50
2018-11-21T22:08:02.906Z,5.40
2018-11-21T22:10:50.692Z,5.40
2018-11-21T22:13:38.425Z,5.60
2018-11-21T22:16:26.174Z,5.70
2018-11-21T22:18:54.596Z,5.60
2018-11-21T22:21:42.329Z,5.50
2018-11-21T22:24:30.388Z,5.40
2018-11-21T22:27:18.173Z,5.50
2018-11-21T22:30:07.205Z,5.60
2018-11-21T22:32:55.679Z,5.60
2018-11-21T22:35:43.431Z,5.60
2018-11-21T22:41:18.938Z,5.60
2018-11-21T22:46:54.483Z,5.50
2018-11-21T22:49:42.612Z,5.40
2018-11-21T22:52:30.415Z,5.40
2018-11-21T22:55:18.467Z,5.40
2018-11-21T22:58:06.200Z,5.40
2018-11-21T23:00:54.201Z,5.40
2018-11-21T23:03:35.084Z,5.40
2018-11-21T23:06:15.949Z,5.50
2018-11-21T23:08:56.602Z,5.50
2018-11-21T23:11:37.243Z,5.60
2018-11-21T23:14:17.694Z,5.50
2018-11-21T23:16:58.669Z,5.60
2018-11-21T23:19:27.319Z,5.60
2018-11-21T23:22:15.025Z,5.50
2018-11-21T23:25:02.736Z,5.40
2018-11-21T23:27:50.769Z,5.40
2018-11-21T23:30:39.275Z,5.40
2018-11-21T23:33:27.331Z,5.40
2018-11-21T23:36:15.010Z,5.30
2018-11-21T23:39:02.745Z,5.40
2018-11-21T23:41:50.467Z,5.50
2018-11-21T23:44:18.845Z,5.40
2018-11-21T23:47:06.543Z,5.50
2018-11-21T23:49:54.271Z,5.40
2018-11-21T23:52:41.968Z,5.40
2018-11-21T23:55:30.076Z,5.40
2018-11-21T23:58:18.079Z,5.40
